createdAt,value
2019-05-25T00:02:29.253Z,99180.51
2019-05-25T00:05:00.213Z,99189.23
2019-05-25T00:07:31.085Z,99185.48
2019-05-25T00:10:02.953Z,99186.30
2019-05-25T00:12:35.679Z,99183.26
2019-05-25T00:15:06.465Z,99186.64
2019-05-25T00:17:37.076Z,99182.95
2019-05-25T00:20:09.221Z,99176.94
2019-05-25T00:22:40.765Z,99176.84
2019-05-25T00:25:11.967Z,99183.98
2019-05-25T00:27:45.511Z,99178.78
2019-05-25T00:30:17.795Z,99178.72
2019-05-25T00:32:49.218Z,99181.27
2019-05-25T00:35:21.104Z,99183.14
2019-05-25T00:37:50.172Z,99182.95
2019-05-25T00:40:21.798Z,99177.92
2019-05-25T00:42:52.605Z,99178.88
2019-05-25T00:45:23.053Z,99183.98
2019-05-25T00:47:53.419Z,99177.21
2019-05-25T00:50:25.087Z,99178.46
2019-05-25T00:52:53.061Z,99181.50
2019-05-25T00:55:27.837Z,99178.98
2019-05-25T00:57:58.915Z,99172.81
2019-05-25T01:00:26.958Z,99177.72
2019-05-25T01:02:54.894Z,99178.00
2019-05-25T01:05:22.686Z,99177.72
2019-05-25T01:07:50.550Z,99175.45
2019-05-25T01:10:18.303Z,99177.96
2019-05-25T01:12:46.125Z,99183.66
2019-05-25T01:15:15.169Z,99176.98
2019-05-25T01:17:42.949Z,99177.69
2019-05-25T01:20:12.999Z,99176.44
2019-05-25T01:22:40.758Z,99180.50
2019-05-25T01:25:08.903Z,99181.77
2019-05-25T01:27:36.641Z,99187.61
2019-05-25T01:30:05.123Z,99188.20
2019-05-25T01:32:33.191Z,99191.28
2019-05-25T01:35:01.119Z,99187.00
2019-05-25T01:37:29.172Z,99188.02
2019-05-25T01:39:56.904Z,99192.08
2019-05-25T01:42:24.630Z,99194.50
2019-05-25T01:44:52.485Z,99201.81
2019-05-25T01:47:20.197Z,99194.68
2019-05-25T01:49:48.008Z,99193.98
2019-05-25T01:52:15.734Z,99200.69
2019-05-25T01:54:58.611Z,99205.38
2019-05-25T01:57:13.522Z,99196.53
2019-05-25T01:59:41.332Z,99195.83
2019-05-25T02:02:09.113Z,99202.74
2019-05-25T02:04:37.008Z,99207.55
2019-05-25T02:07:04.769Z,99200.80
2019-05-25T02:09:32.539Z,99204.50
2019-05-25T02:12:00.333Z,99196.22
2019-05-25T02:14:28.420Z,99199.40
2019-05-25T02:16:56.401Z,99196.45
2019-05-25T02:19:24.222Z,99203.34
2019-05-25T02:21:51.976Z,99205.94
2019-05-25T02:24:20.090Z,99204.81
2019-05-25T02:26:48.076Z,99204.55
2019-05-25T02:29:15.822Z,99203.11
2019-05-25T02:31:43.670Z,99200.27
2019-05-25T02:34:11.699Z,99201.70
2019-05-25T02:36:39.478Z,99201.51
2019-05-25T02:39:07.450Z,99201.45
2019-05-25T02:41:35.534Z,99204.05
2019-05-25T02:44:04.125Z,99201.20
2019-05-25T02:46:31.912Z,99201.27
2019-05-25T02:48:59.622Z,99201.13
2019-05-25T02:51:27.400Z,99198.75
2019-05-25T02:53:55.157Z,99200.47
2019-05-25T02:56:22.986Z,99201.54
2019-05-25T02:58:50.738Z,99206.13
2019-05-25T03:01:18.524Z,99203.80
2019-05-25T03:03:46.460Z,99200.05
2019-05-25T03:06:14.561Z,99206.52
2019-05-25T03:08:46.813Z,99207.06
2019-05-25T03:11:15.526Z,99206.84
2019-05-25T03:13:45.441Z,99205.89
2019-05-25T03:16:13.163Z,99208.02
2019-05-25T03:18:40.907Z,99210.09
2019-05-25T03:21:08.719Z,99208.63
2019-05-25T03:23:36.575Z,99210.91
2019-05-25T03:26:04.415Z,99215.05
2019-05-25T03:28:32.234Z,99214.25
2019-05-25T03:31:00.014Z,99210.19
2019-05-25T03:33:27.889Z,99210.13
2019-05-25T03:35:55.827Z,99211.38
2019-05-25T03:38:23.578Z,99213.32
2019-05-25T03:40:51.347Z,99211.73
2019-05-25T03:43:19.245Z,99217.94
2019-05-25T03:45:52.215Z,99221.11
2019-05-25T03:48:22.062Z,99217.36
2019-05-25T03:50:49.838Z,99220.48
2019-05-25T03:53:17.722Z,99227.69
2019-05-25T03:55:45.470Z,99229.73
2019-05-25T03:58:13.330Z,99227.20
2019-05-25T04:00:41.143Z,99227.84
2019-05-25T04:03:09.094Z,99232.06
2019-05-25T04:05:36.843Z,99228.17
2019-05-25T04:08:05.015Z,99223.52
2019-05-25T04:10:32.816Z,99200.28
2019-05-25T04:13:00.749Z,99221.70
2019-05-25T04:15:28.524Z,99218.94
2019-05-25T04:17:56.265Z,99218.14
2019-05-25T04:20:24.006Z,99221.95
2019-05-25T04:22:51.841Z,99229.48
2019-05-25T04:25:19.639Z,99232.79
2019-05-25T04:27:49.642Z,99234.89
2019-05-25T04:30:18.065Z,99238.38
2019-05-25T04:32:45.956Z,99246.64
2019-05-25T04:35:13.974Z,99246.85
2019-05-25T04:37:41.711Z,99249.66
2019-05-25T04:40:09.519Z,99241.86
2019-05-25T04:42:37.261Z,99241.92
2019-05-25T04:45:05.935Z,99250.56
2019-05-25T04:47:33.729Z,99249.48
2019-05-25T04:50:03.408Z,99250.49
2019-05-25T04:52:31.126Z,99254.36
2019-05-25T04:54:58.976Z,99253.09
2019-05-25T04:57:26.693Z,99260.05
2019-05-25T04:59:54.483Z,99256.30
2019-05-25T05:02:22.209Z,99264.48
2019-05-25T05:04:50.030Z,99264.16
2019-05-25T05:07:17.803Z,99260.13
2019-05-25T05:09:45.655Z,99258.05
2019-05-25T05:12:13.446Z,99257.06
2019-05-25T05:14:41.654Z,99258.66
2019-05-25T05:17:09.422Z,99259.30
2019-05-25T05:19:37.191Z,99255.76
2019-05-25T05:22:05.999Z,99256.47
2019-05-25T05:24:34.205Z,99256.15
2019-05-25T05:27:02.001Z,99258.89
2019-05-25T05:29:29.748Z,99258.05
2019-05-25T05:31:57.548Z,99268.19
2019-05-25T05:34:25.403Z,99267.23
2019-05-25T05:36:53.902Z,99272.48
2019-05-25T05:39:23.785Z,99277.22
2019-05-25T05:41:54.026Z,99276.95
2019-05-25T05:44:24.039Z,99277.36
2019-05-25T05:46:52.668Z,99276.57
2019-05-25T05:49:21.892Z,99282.80
2019-05-25T05:51:49.774Z,99279.69
2019-05-25T05:54:19.064Z,99271.70
2019-05-25T05:56:47.095Z,99276.34
2019-05-25T05:59:14.838Z,99280.53
2019-05-25T06:01:42.671Z,99283.81
2019-05-25T06:04:15.764Z,99281.20
2019-05-25T06:06:43.588Z,99279.80
2019-05-25T06:09:11.375Z,99280.27
2019-05-25T06:11:39.213Z,99276.28
2019-05-25T06:14:11.995Z,99278.13
2019-05-25T06:16:39.872Z,99274.58
2019-05-25T06:19:07.636Z,99274.70
2019-05-25T06:21:35.494Z,99272.42
2019-05-25T06:24:03.430Z,99281.48
2019-05-25T06:26:31.193Z,99281.08
2019-05-25T06:28:59.002Z,99280.59
2019-05-25T06:31:26.795Z,99281.88
2019-05-25T06:33:54.674Z,99282.12
2019-05-25T06:36:22.474Z,99285.66
2019-05-25T06:38:50.235Z,99288.27
2019-05-25T06:41:18.054Z,99290.13
2019-05-25T06:43:55.921Z,99289.77
2019-05-25T06:46:23.682Z,99289.35
2019-05-25T06:48:51.542Z,99282.84
2019-05-25T06:51:19.455Z,99287.13
2019-05-25T06:53:47.317Z,99291.25
2019-05-25T06:56:15.093Z,99294.61
2019-05-25T06:58:42.925Z,99290.33
2019-05-25T07:01:10.762Z,99291.77
2019-05-25T07:03:38.692Z,99290.11
2019-05-25T07:06:06.461Z,99291.58
2019-05-25T07:08:34.528Z,99288.03
2019-05-25T07:11:02.391Z,99294.70
2019-05-25T07:13:32.246Z,99287.10
2019-05-25T07:16:00.095Z,99297.18
2019-05-25T07:18:27.887Z,99292.30
2019-05-25T07:20:55.696Z,99290.44
2019-05-25T07:23:23.456Z,99315.06
2019-05-25T07:25:51.288Z,99280.45
2019-05-25T07:28:19.194Z,99298.46
2019-05-25T07:30:46.972Z,99305.53
2019-05-25T07:33:14.802Z,99305.25
2019-05-25T07:35:42.676Z,99303.83
2019-05-25T07:38:10.563Z,99289.19
2019-05-25T07:40:38.417Z,99289.03
2019-05-25T07:43:06.816Z,99261.69
2019-05-25T07:45:35.209Z,99253.09
2019-05-25T07:48:04.832Z,99265.31
2019-05-25T07:50:33.269Z,99274.28
2019-05-25T07:53:02.251Z,99267.98
2019-05-25T07:55:30.531Z,99266.80
2019-05-25T07:58:15.293Z,99291.69
2019-05-25T08:00:27.964Z,99283.77
2019-05-25T08:02:55.749Z,99289.81
2019-05-25T08:05:23.696Z,99284.50
2019-05-25T08:07:51.505Z,99281.28
2019-05-25T08:10:21.268Z,99266.16
2019-05-25T08:12:48.984Z,99248.25
2019-05-25T08:15:16.842Z,99286.13
2019-05-25T08:17:44.709Z,99242.14
2019-05-25T08:20:13.219Z,99271.28
2019-05-25T08:22:41.042Z,99275.60
2019-05-25T08:25:09.270Z,99246.03
2019-05-25T08:27:37.664Z,99279.88
2019-05-25T08:30:06.933Z,99245.50
2019-05-25T08:32:34.848Z,99254.74
2019-05-25T08:35:02.831Z,99258.77
2019-05-25T08:37:30.627Z,99269.55
2019-05-25T08:39:58.356Z,99263.72
2019-05-25T08:42:26.177Z,99281.69
2019-05-25T08:44:54.346Z,99261.23
2019-05-25T08:47:22.065Z,99269.63
2019-05-25T08:49:49.812Z,99264.78
2019-05-25T08:52:17.662Z,99257.88
2019-05-25T08:54:50.477Z,99252.83
2019-05-25T08:57:18.784Z,99254.59
2019-05-25T08:59:46.808Z,99249.11
2019-05-25T09:02:14.917Z,99249.87
2019-05-25T09:04:42.757Z,99240.66
2019-05-25T09:07:10.511Z,99247.68
2019-05-25T09:09:38.319Z,99249.73
2019-05-25T09:12:06.063Z,99248.48
2019-05-25T09:14:34.111Z,99248.23
2019-05-25T09:17:02.493Z,99248.47
2019-05-25T09:19:30.823Z,99260.94
2019-05-25T09:22:02.687Z,99259.06
2019-05-25T09:24:29.098Z,99262.05
2019-05-25T09:26:57.435Z,99246.17
2019-05-25T09:29:25.626Z,99248.30
2019-05-25T09:31:53.769Z,99254.22
2019-05-25T09:34:21.742Z,99255.64
2019-05-25T09:36:49.481Z,99252.45
2019-05-25T09:39:17.310Z,99250.09
2019-05-25T09:41:45.056Z,99251.11
2019-05-25T09:44:12.880Z,99265.02
2019-05-25T09:46:40.634Z,99237.51
2019-05-25T09:49:08.485Z,99260.86
2019-05-25T09:51:36.316Z,99261.20
2019-05-25T09:54:04.154Z,99265.11
2019-05-25T09:56:31.913Z,99255.85
2019-05-25T09:59:01.962Z,99285.00
2019-05-25T10:01:29.758Z,99267.83
2019-05-25T10:03:57.527Z,99261.08
2019-05-25T10:06:25.294Z,99250.65
2019-05-25T10:08:53.081Z,99248.56
2019-05-25T10:11:20.957Z,99244.66
2019-05-25T10:13:48.670Z,99243.95
2019-05-25T10:16:16.472Z,99241.70
2019-05-25T10:18:44.215Z,99232.61
2019-05-25T10:21:14.793Z,99242.05
2019-05-25T10:23:41.664Z,99235.64
2019-05-25T10:26:09.561Z,99234.22
2019-05-25T10:28:37.342Z,99235.98
2019-05-25T10:31:08.119Z,99221.63
2019-05-25T10:33:36.036Z,99220.36
2019-05-25T10:36:03.898Z,99217.51
2019-05-25T10:38:31.734Z,99213.43
2019-05-25T10:40:59.532Z,99206.98
2019-05-25T10:43:27.408Z,99212.35
2019-05-25T10:45:55.256Z,99192.41
2019-05-25T10:48:23.049Z,99204.55
2019-05-25T10:50:50.965Z,99197.60
2019-05-25T10:53:18.926Z,99189.27
2019-05-25T10:55:46.699Z,99185.13
2019-05-25T10:58:14.507Z,99173.36
2019-05-25T11:00:42.280Z,99183.34
2019-05-25T11:03:10.235Z,99181.84
2019-05-25T11:05:38.020Z,99180.30
2019-05-25T11:08:05.934Z,99184.84
2019-05-25T11:10:33.799Z,99188.94
2019-05-25T11:13:01.664Z,99179.07
2019-05-25T11:15:29.425Z,99181.28
2019-05-25T11:17:57.218Z,99192.98
2019-05-25T11:20:25.025Z,99184.18
2019-05-25T11:22:52.921Z,99172.98
2019-05-25T11:25:20.710Z,99177.23
2019-05-25T11:27:48.454Z,99175.42
2019-05-25T11:30:16.728Z,99171.17
2019-05-25T11:32:44.634Z,99156.33
2019-05-25T11:35:13.034Z,99150.40
2019-05-25T11:37:40.819Z,99151.78
2019-05-25T11:40:09.423Z,99153.97
2019-05-25T11:42:37.225Z,99155.69
2019-05-25T11:45:05.476Z,99159.84
2019-05-25T11:47:33.269Z,99165.88
2019-05-25T11:50:01.025Z,99175.63
2019-05-25T11:52:28.726Z,99168.91
2019-05-25T11:54:56.510Z,99167.96
2019-05-25T11:57:24.321Z,99160.00
2019-05-25T11:59:52.220Z,99161.71
2019-05-25T12:02:20.067Z,99138.46
2019-05-25T12:04:47.941Z,99135.70
2019-05-25T12:07:15.737Z,99145.09
2019-05-25T12:09:43.511Z,99141.42
2019-05-25T12:12:11.376Z,99124.23
2019-05-25T12:14:39.386Z,99147.99
2019-05-25T12:17:07.157Z,99150.84
2019-05-25T12:19:34.968Z,99137.56
2019-05-25T12:22:02.705Z,99138.48
2019-05-25T12:24:30.495Z,99136.55
2019-05-25T12:27:00.682Z,99135.66
2019-05-25T12:29:28.482Z,99133.13
2019-05-25T12:32:04.251Z,99122.22
2019-05-25T12:34:26.065Z,99137.48
2019-05-25T12:36:53.893Z,99128.52
2019-05-25T12:39:21.728Z,99142.34
2019-05-25T12:41:49.512Z,99141.33
2019-05-25T12:44:17.278Z,99131.61
2019-05-25T12:46:45.055Z,99121.19
2019-05-25T12:49:12.902Z,99135.69
2019-05-25T12:51:40.649Z,99132.02
2019-05-25T12:54:08.397Z,99128.44
2019-05-25T12:56:36.308Z,99118.80
2019-05-25T12:59:04.235Z,99114.09
2019-05-25T13:01:32.094Z,99117.70
2019-05-25T13:03:59.862Z,99125.26
2019-05-25T13:06:47.099Z,99116.99
2019-05-25T13:09:14.887Z,99114.94
2019-05-25T13:11:42.778Z,99114.21
2019-05-25T13:14:14.633Z,99116.61
2019-05-25T13:16:40.581Z,99105.14
2019-05-25T13:19:08.710Z,99104.64
2019-05-25T13:21:36.573Z,99102.02
2019-05-25T13:24:04.521Z,99102.86
2019-05-25T13:26:32.369Z,99111.28
2019-05-25T13:29:00.098Z,99105.46
2019-05-25T13:31:27.950Z,99096.41
2019-05-25T13:33:56.108Z,99095.97
2019-05-25T13:36:23.939Z,99101.66
2019-05-25T13:38:51.746Z,99097.59
2019-05-25T13:41:20.624Z,99092.39
2019-05-25T13:43:50.142Z,99092.00
2019-05-25T13:46:18.009Z,99087.64
2019-05-25T13:48:45.850Z,99094.27
2019-05-25T13:51:13.644Z,99087.56
2019-05-25T13:53:41.400Z,99091.73
2019-05-25T13:56:09.295Z,99082.91
2019-05-25T13:58:39.116Z,99084.50
2019-05-25T14:01:06.975Z,99091.94
2019-05-25T14:03:34.716Z,99091.70
2019-05-25T14:06:02.548Z,99090.25
2019-05-25T14:08:30.368Z,99091.87
2019-05-25T14:10:58.142Z,99086.74
2019-05-25T14:13:25.938Z,99094.53
2019-05-25T14:16:06.100Z,99092.58
2019-05-25T14:18:23.401Z,99097.69
2019-05-25T14:20:51.236Z,99106.03
2019-05-25T14:23:18.982Z,99111.13
2019-05-25T14:25:46.716Z,99106.54
2019-05-25T14:28:14.510Z,99108.36
2019-05-25T14:30:42.360Z,99107.94
2019-05-25T14:33:10.318Z,99110.09
2019-05-25T14:35:38.140Z,99105.00
2019-05-25T14:38:05.952Z,99099.31
2019-05-25T14:40:33.744Z,99098.92
2019-05-25T14:43:07.140Z,99097.59
2019-05-25T14:45:34.954Z,99096.73
2019-05-25T14:48:02.823Z,99097.17
2019-05-25T14:50:30.619Z,99102.98
2019-05-25T14:52:58.434Z,99094.36
2019-05-25T14:55:26.487Z,99100.34
2019-05-25T14:57:54.408Z,99098.78
2019-05-25T15:00:22.258Z,99096.98
2019-05-25T15:02:50.313Z,99094.91
2019-05-25T15:05:18.321Z,99100.81
2019-05-25T15:07:46.161Z,99103.53
2019-05-25T15:10:14.264Z,99101.23
2019-05-25T15:12:42.140Z,99100.81
2019-05-25T15:15:10.224Z,99098.88
2019-05-25T15:17:38.194Z,99096.22
2019-05-25T15:20:06.927Z,99094.52
2019-05-25T15:22:35.013Z,99097.08
2019-05-25T15:25:03.220Z,99103.27
2019-05-25T15:27:31.155Z,99104.77
2019-05-25T15:29:58.907Z,99104.63
2019-05-25T15:32:26.786Z,99104.73
2019-05-25T15:34:54.534Z,99102.17
2019-05-25T15:37:22.349Z,99102.63
2019-05-25T15:39:50.209Z,99101.97
2019-05-25T15:42:18.048Z,99109.20
2019-05-25T15:44:45.986Z,99110.42
2019-05-25T15:47:13.801Z,99104.17
2019-05-25T15:49:41.615Z,99105.36
2019-05-25T15:52:09.343Z,99102.14
2019-05-25T15:54:37.211Z,99101.75
2019-05-25T15:57:04.969Z,99103.84
2019-05-25T15:59:32.741Z,99105.86
2019-05-25T16:02:00.490Z,99103.84
2019-05-25T16:04:28.651Z,99106.36
2019-05-25T16:06:56.439Z,99109.72
2019-05-25T16:09:24.217Z,99117.45
2019-05-25T16:11:52.003Z,99120.42
2019-05-25T16:14:24.995Z,99121.91
2019-05-25T16:16:52.751Z,99123.09
2019-05-25T16:19:20.523Z,99122.46
2019-05-25T16:21:48.323Z,99119.31
2019-05-25T16:24:16.115Z,99121.85
2019-05-25T16:26:46.415Z,99120.83
2019-05-25T16:29:13.562Z,99119.30
2019-05-25T16:31:41.373Z,99116.72
2019-05-25T16:34:09.268Z,99124.13
2019-05-25T16:36:37.037Z,99130.69
2019-05-25T16:39:06.452Z,99134.44
2019-05-25T16:41:34.728Z,99136.09
2019-05-25T16:44:02.550Z,99136.24
2019-05-25T16:46:30.406Z,99139.18
2019-05-25T16:48:58.180Z,99138.48
2019-05-25T16:51:25.997Z,99143.59
2019-05-25T16:53:53.753Z,99139.94
2019-05-25T16:56:21.559Z,99147.64
2019-05-25T16:58:49.372Z,99141.66
2019-05-25T17:01:18.225Z,99149.77
2019-05-25T17:03:46.466Z,99152.56
2019-05-25T17:06:14.284Z,99153.53
2019-05-25T17:08:42.090Z,99149.86
2019-05-25T17:11:09.915Z,99149.33
2019-05-25T17:13:37.622Z,99147.31
2019-05-25T17:16:05.436Z,99148.17
2019-05-25T17:18:33.259Z,99149.09
2019-05-25T17:21:01.028Z,99150.55
2019-05-25T17:23:29.107Z,99151.34
2019-05-25T17:25:56.860Z,99164.00
2019-05-25T17:28:24.638Z,99161.02
2019-05-25T17:30:52.448Z,99159.86
2019-05-25T17:33:20.191Z,99162.89
2019-05-25T17:35:47.996Z,99159.00
2019-05-25T17:38:15.738Z,99165.30
2019-05-25T17:40:43.568Z,99164.87
2019-05-25T17:43:11.680Z,99161.59
2019-05-25T17:45:39.462Z,99163.05
2019-05-25T17:48:07.276Z,99163.90
2019-05-25T17:50:35.007Z,99161.59
2019-05-25T17:53:03.031Z,99161.87
2019-05-25T17:55:30.823Z,99167.60
2019-05-25T17:57:58.689Z,99170.87
2019-05-25T18:00:42.610Z,99173.45
2019-05-25T18:03:10.505Z,99176.53
2019-05-25T18:05:38.300Z,99171.70
2019-05-25T18:08:06.289Z,99176.83
2019-05-25T18:10:51.358Z,99180.91
2019-05-25T18:13:04.062Z,99182.23
2019-05-25T18:15:32.256Z,99184.86
2019-05-25T18:18:00.099Z,99186.57
2019-05-25T18:20:27.927Z,99188.55
2019-05-25T18:22:55.751Z,99186.78
2019-05-25T18:25:23.568Z,99191.79
2019-05-25T18:27:51.449Z,99193.63
2019-05-25T18:30:19.853Z,99198.06
2019-05-25T18:32:47.860Z,99193.26
2019-05-25T18:35:15.700Z,99199.14
2019-05-25T18:37:43.561Z,99202.56
2019-05-25T18:40:11.471Z,99205.17
2019-05-25T18:42:39.602Z,99209.67
2019-05-25T18:45:10.845Z,99224.06
2019-05-25T18:47:38.689Z,99231.38
2019-05-25T18:50:08.225Z,99240.22
2019-05-25T18:52:36.100Z,99239.46
2019-05-25T18:55:05.021Z,99244.42
2019-05-25T18:57:32.850Z,99242.20
2019-05-25T19:00:00.669Z,99244.25
2019-05-25T19:02:28.580Z,99248.70
2019-05-25T19:04:59.960Z,99245.93
2019-05-25T19:07:26.227Z,99245.95
2019-05-25T19:09:54.040Z,99253.74
2019-05-25T19:12:21.885Z,99254.48
2019-05-25T19:14:54.982Z,99256.95
2019-05-25T19:17:22.881Z,99261.91
2019-05-25T19:19:50.712Z,99265.20
2019-05-25T19:22:19.694Z,99271.50
2019-05-25T19:24:47.624Z,99275.19
2019-05-25T19:27:15.375Z,99280.30
2019-05-25T19:29:43.227Z,99285.78
2019-05-25T19:32:11.002Z,99285.48
2019-05-25T19:34:58.526Z,99287.36
2019-05-25T19:37:19.399Z,99294.17
2019-05-25T19:39:43.353Z,99282.45
2019-05-25T19:42:11.151Z,99306.30
2019-05-25T19:44:39.084Z,99308.89
2019-05-25T19:47:07.026Z,99309.88
2019-05-25T19:49:34.842Z,99317.66
2019-05-25T19:52:02.821Z,99316.59
2019-05-25T19:54:30.679Z,99320.98
2019-05-25T19:56:58.583Z,99325.87
2019-05-25T19:59:26.396Z,99329.75
2019-05-25T20:01:54.257Z,99327.73
2019-05-25T20:04:22.195Z,99338.61
2019-05-25T20:06:50.724Z,99336.86
2019-05-25T20:09:18.724Z,99341.77
2019-05-25T20:11:46.639Z,99340.83
2019-05-25T20:14:24.704Z,99345.88
2019-05-25T20:16:52.508Z,99348.27
2019-05-25T20:19:20.581Z,99351.69
2019-05-25T20:21:50.786Z,99350.04
2019-05-25T20:24:29.636Z,99355.72
2019-05-25T20:27:01.346Z,99365.44
2019-05-25T20:29:27.209Z,99365.75
2019-05-25T20:31:55.003Z,99364.77
2019-05-25T20:34:22.787Z,99371.98
2019-05-25T20:36:50.627Z,99367.15
2019-05-25T20:39:18.483Z,99371.73
2019-05-25T20:41:46.354Z,99372.57
2019-05-25T20:44:14.292Z,99374.48
2019-05-25T20:46:42.102Z,99381.68
2019-05-25T20:49:09.868Z,99383.84
2019-05-25T20:51:37.687Z,99388.45
2019-05-25T20:54:05.721Z,99388.16
2019-05-25T20:56:33.545Z,99387.58
2019-05-25T20:59:01.279Z,99389.16
2019-05-25T21:01:29.118Z,99394.09
2019-05-25T21:03:57.040Z,99396.55
2019-05-25T21:06:24.810Z,99395.23
2019-05-25T21:08:52.651Z,99394.68
2019-05-25T21:11:20.454Z,99395.83
2019-05-25T21:13:48.474Z,99399.59
2019-05-25T21:16:16.288Z,99400.24
2019-05-25T21:18:44.083Z,99405.24
2019-05-25T21:21:11.890Z,99406.22
2019-05-25T21:23:39.755Z,99405.11
2019-05-25T21:26:07.636Z,99405.45
2019-05-25T21:28:35.519Z,99415.63
2019-05-25T21:31:03.238Z,99418.19
2019-05-25T21:33:31.065Z,99429.41
2019-05-25T21:36:08.183Z,99431.73
2019-05-25T21:38:28.597Z,99433.53
2019-05-25T21:40:56.398Z,99439.88
2019-05-25T21:43:24.200Z,99434.19
2019-05-25T21:45:52.017Z,99437.95
2019-05-25T21:48:19.836Z,99434.66
2019-05-25T21:50:47.777Z,99436.48
2019-05-25T21:53:15.568Z,99435.23
2019-05-25T21:55:43.342Z,99433.81
2019-05-25T21:58:11.094Z,99441.05
2019-05-25T22:00:39.665Z,99441.97
2019-05-25T22:03:32.090Z,99447.03
2019-05-25T22:05:59.875Z,99447.45
2019-05-25T22:08:27.643Z,99447.30
2019-05-25T22:10:55.378Z,99449.38
2019-05-25T22:13:28.330Z,99446.48
2019-05-25T22:15:53.035Z,99443.61
2019-05-25T22:18:20.764Z,99440.58
2019-05-25T22:20:49.365Z,99448.97
2019-05-25T22:23:17.120Z,99452.97
2019-05-25T22:25:44.948Z,99452.41
2019-05-25T22:28:12.737Z,99448.68
2019-05-25T22:30:40.452Z,99452.42
2019-05-25T22:33:08.297Z,99445.41
2019-05-25T22:35:44.620Z,99442.95
2019-05-25T22:38:12.435Z,99445.70
2019-05-25T22:40:40.385Z,99444.13
2019-05-25T22:43:08.475Z,99442.71
2019-05-25T22:45:36.358Z,99437.02
2019-05-25T22:48:04.204Z,99441.58
2019-05-25T22:50:33.060Z,99440.71
2019-05-25T22:53:00.872Z,99439.03
2019-05-25T22:55:28.644Z,99440.62
2019-05-25T22:57:56.461Z,99440.86
2019-05-25T23:00:24.200Z,99436.95
2019-05-25T23:02:52.145Z,99434.23
2019-05-25T23:05:19.963Z,99434.34
2019-05-25T23:07:47.751Z,99435.73
2019-05-25T23:10:15.754Z,99433.55
2019-05-25T23:12:43.564Z,99429.92
2019-05-25T23:15:11.681Z,99433.85
2019-05-25T23:17:39.453Z,99432.45
2019-05-25T23:20:07.583Z,99431.73
2019-05-25T23:22:35.399Z,99427.15
2019-05-25T23:25:03.412Z,99427.29
2019-05-25T23:27:31.209Z,99425.22
2019-05-25T23:29:58.982Z,99430.45
2019-05-25T23:32:26.823Z,99424.30
2019-05-25T23:34:54.609Z,99423.41
2019-05-25T23:37:22.427Z,99427.47
2019-05-25T23:39:50.191Z,99436.13
2019-05-25T23:42:17.973Z,99435.91
2019-05-25T23:44:46.035Z,99442.25
2019-05-25T23:47:13.837Z,99434.73
2019-05-25T23:49:41.569Z,99431.27
2019-05-25T23:52:09.438Z,99431.47
2019-05-25T23:54:37.376Z,99428.17
2019-05-25T23:57:05.195Z,99428.34
2019-05-25T23:59:32.939Z,99426.71
